sensor_id;sensor_type;location;lat;lon;timestamp;pressure;altitude;pressure_sealevel;temperature;humidity
21236;BME280;10775;42.678;26.324;2023-07-20T00:01:14;98137.91;;;28.26;57.44
21236;BME280;10775;42.678;26.324;2023-07-20T00:03:40;98131.66;;;28.44;57.09
21236;BME280;10775;42.678;26.324;2023-07-20T00:06:06;98128.28;;;28.59;56.68
21236;BME280;10775;42.678;26.324;2023-07-20T00:08:31;98129.34;;;28.67;56.66
21236;BME280;10775;42.678;26.324;2023-07-20T00:10:57;98123.94;;;28.67;56.31
21236;BME280;10775;42.678;26.324;2023-07-20T00:13:22;98123.19;;;28.82;56.13
21236;BME280;10775;42.678;26.324;2023-07-20T00:15:48;98123.44;;;28.97;55.69
21236;BME280;10775;42.678;26.324;2023-07-20T00:18:13;98148.72;;;29.04;55.34
21236;BME280;10775;42.678;26.324;2023-07-20T00:20:39;98206.47;;;28.66;55.70
21236;BME280;10775;42.678;26.324;2023-07-20T00:23:05;98270.69;;;26.94;57.21
21236;BME280;10775;42.678;26.324;2023-07-20T00:25:32;98265.19;;;26.95;56.80
21236;BME280;10775;42.678;26.324;2023-07-20T00:27:58;98258.78;;;27.53;54.72
21236;BME280;10775;42.678;26.324;2023-07-20T00:30:24;98248.16;;;27.34;55.86
21236;BME280;10775;42.678;26.324;2023-07-20T00:32:49;98253.66;;;27.69;55.25
21236;BME280;10775;42.678;26.324;2023-07-20T00:35:14;98249.38;;;27.77;58.50
21236;BME280;10775;42.678;26.324;2023-07-20T00:37:40;98225.34;;;27.10;56.53
21236;BME280;10775;42.678;26.324;2023-07-20T00:40:06;98206.91;;;27.62;55.89
21236;BME280;10775;42.678;26.324;2023-07-20T00:42:34;98180.19;;;27.05;56.64
21236;BME280;10775;42.678;26.324;2023-07-20T00:45:00;98197.91;;;27.16;56.95
21236;BME280;10775;42.678;26.324;2023-07-20T00:47:26;98209.34;;;27.56;57.18
21236;BME280;10775;42.678;26.324;2023-07-20T00:49:52;98209.50;;;27.26;55.93
21236;BME280;10775;42.678;26.324;2023-07-20T00:52:19;98198.88;;;28.08;56.91
21236;BME280;10775;42.678;26.324;2023-07-20T00:54:47;98187.94;;;27.91;55.15
21236;BME280;10775;42.678;26.324;2023-07-20T00:57:17;98179.38;;;26.95;56.81
21236;BME280;10775;42.678;26.324;2023-07-20T00:59:43;98175.28;;;27.38;56.16
21236;BME280;10775;42.678;26.324;2023-07-20T01:02:09;98187.16;;;27.36;56.92
21236;BME280;10775;42.678;26.324;2023-07-20T01:04:35;98191.69;;;27.81;58.30
21236;BME280;10775;42.678;26.324;2023-07-20T01:07:02;98186.81;;;27.94;56.24
21236;BME280;10775;42.678;26.324;2023-07-20T01:12:45;98162.13;;;27.35;53.75
21236;BME280;10775;42.678;26.324;2023-07-20T01:15:11;98153.19;;;26.79;54.81
21236;BME280;10775;42.678;26.324;2023-07-20T01:17:37;98147.25;;;26.66;55.18
21236;BME280;10775;42.678;26.324;2023-07-20T01:20:03;98166.66;;;27.62;52.47
21236;BME280;10775;42.678;26.324;2023-07-20T01:22:48;98133.25;;;27.19;54.78
21236;BME280;10775;42.678;26.324;2023-07-20T01:31:25;98124.41;;;27.64;55.64
21236;BME280;10775;42.678;26.324;2023-07-20T01:33:53;98120.09;;;27.71;51.20
21236;BME280;10775;42.678;26.324;2023-07-20T01:36:19;98122.31;;;27.76;48.47
21236;BME280;10775;42.678;26.324;2023-07-20T01:38:47;98093.06;;;27.37;49.37
21236;BME280;10775;42.678;26.324;2023-07-20T01:41:13;98072.03;;;27.32;53.36
21236;BME280;10775;42.678;26.324;2023-07-20T01:43:39;98060.66;;;27.66;54.99
21236;BME280;10775;42.678;26.324;2023-07-20T01:46:05;98055.13;;;27.68;47.31
21236;BME280;10775;42.678;26.324;2023-07-20T01:48:31;98026.63;;;27.85;53.96
21236;BME280;10775;42.678;26.324;2023-07-20T01:50:56;98033.47;;;28.31;45.86
21236;BME280;10775;42.678;26.324;2023-07-20T01:53:22;98025.06;;;27.46;47.67
21236;BME280;10775;42.678;26.324;2023-07-20T01:55:47;98015.31;;;27.45;49.61
21236;BME280;10775;42.678;26.324;2023-07-20T01:58:13;97989.69;;;27.15;48.61
21236;BME280;10775;42.678;26.324;2023-07-20T02:00:38;97972.63;;;27.52;47.74
21236;BME280;10775;42.678;26.324;2023-07-20T02:03:05;97923.81;;;27.74;55.11
21236;BME280;10775;42.678;26.324;2023-07-20T02:05:30;97881.47;;;27.68;47.39
21236;BME280;10775;42.678;26.324;2023-07-20T02:07:55;97847.06;;;27.64;46.82
21236;BME280;10775;42.678;26.324;2023-07-20T02:10:21;97854.84;;;27.75;49.72
21236;BME280;10775;42.678;26.324;2023-07-20T02:12:46;97833.53;;;28.50;47.71
21236;BME280;10775;42.678;26.324;2023-07-20T02:15:13;97825.75;;;28.39;45.93
21236;BME280;10775;42.678;26.324;2023-07-20T02:17:41;97842.00;;;28.72;44.27
21236;BME280;10775;42.678;26.324;2023-07-20T02:20:08;97885.75;;;29.07;48.65
21236;BME280;10775;42.678;26.324;2023-07-20T02:22:37;97873.22;;;28.56;51.74
21236;BME280;10775;42.678;26.324;2023-07-20T02:25:06;97871.69;;;28.46;47.47
21236;BME280;10775;42.678;26.324;2023-07-20T02:27:36;97914.69;;;28.54;53.01
21236;BME280;10775;42.678;26.324;2023-07-20T02:30:02;97915.88;;;29.10;52.62
21236;BME280;10775;42.678;26.324;2023-07-20T02:32:28;97930.50;;;29.32;51.78
21236;BME280;10775;42.678;26.324;2023-07-20T02:34:54;97935.03;;;29.07;48.28
21236;BME280;10775;42.678;26.324;2023-07-20T02:37:19;97944.97;;;28.56;50.68
21236;BME280;10775;42.678;26.324;2023-07-20T02:39:45;97951.53;;;28.61;52.87
21236;BME280;10775;42.678;26.324;2023-07-20T02:42:10;97965.31;;;28.67;48.29
21236;BME280;10775;42.678;26.324;2023-07-20T02:44:36;97975.38;;;28.65;46.85
21236;BME280;10775;42.678;26.324;2023-07-20T02:47:01;97974.38;;;28.05;47.49
21236;BME280;10775;42.678;26.324;2023-07-20T02:49:27;97986.97;;;28.65;53.91
21236;BME280;10775;42.678;26.324;2023-07-20T02:51:52;97990.59;;;28.82;53.31
21236;BME280;10775;42.678;26.324;2023-07-20T02:54:18;97990.47;;;28.57;53.00
21236;BME280;10775;42.678;26.324;2023-07-20T02:56:44;97989.19;;;28.35;53.75
21236;BME280;10775;42.678;26.324;2023-07-20T02:59:09;98002.19;;;28.91;53.41
21236;BME280;10775;42.678;26.324;2023-07-20T03:01:35;98010.91;;;28.76;53.62
21236;BME280;10775;42.678;26.324;2023-07-20T03:04:01;98018.06;;;28.68;53.52
21236;BME280;10775;42.678;26.324;2023-07-20T03:06:27;98019.78;;;28.69;53.99
21236;BME280;10775;42.678;26.324;2023-07-20T03:08:53;98025.72;;;28.89;53.24
21236;BME280;10775;42.678;26.324;2023-07-20T03:11:19;98029.72;;;28.76;53.76
21236;BME280;10775;42.678;26.324;2023-07-20T03:13:46;98040.31;;;28.78;53.81
21236;BME280;10775;42.678;26.324;2023-07-20T03:16:14;98029.81;;;28.58;53.86
21236;BME280;10775;42.678;26.324;2023-07-20T03:18:44;98037.06;;;28.66;54.23
21236;BME280;10775;42.678;26.324;2023-07-20T03:21:10;98035.25;;;28.75;54.10
21236;BME280;10775;42.678;26.324;2023-07-20T03:23:37;98039.81;;;28.74;54.03
21236;BME280;10775;42.678;26.324;2023-07-20T03:26:03;98033.38;;;28.41;54.54
21236;BME280;10775;42.678;26.324;2023-07-20T03:28:28;98034.41;;;28.22;54.99
21236;BME280;10775;42.678;26.324;2023-07-20T03:30:55;98028.94;;;28.06;55.57
21236;BME280;10775;42.678;26.324;2023-07-20T03:33:25;98035.22;;;28.14;55.78
21236;BME280;10775;42.678;26.324;2023-07-20T03:35:51;98031.19;;;28.71;54.38
21236;BME280;10775;42.678;26.324;2023-07-20T03:38:16;98030.50;;;29.03;48.74
21236;BME280;10775;42.678;26.324;2023-07-20T03:43:20;98038.88;;;28.57;51.32
21236;BME280;10775;42.678;26.324;2023-07-20T03:45:46;98042.81;;;28.45;54.54
21236;BME280;10775;42.678;26.324;2023-07-20T03:48:13;98053.69;;;28.61;54.51
21236;BME280;10775;42.678;26.324;2023-07-20T03:50:39;98056.19;;;28.97;53.57
21236;BME280;10775;42.678;26.324;2023-07-20T03:53:04;98050.25;;;28.86;53.71
21236;BME280;10775;42.678;26.324;2023-07-20T03:55:30;98035.28;;;28.83;53.87
21236;BME280;10775;42.678;26.324;2023-07-20T03:57:56;98043.00;;;28.78;53.74
21236;BME280;10775;42.678;26.324;2023-07-20T04:00:21;98052.34;;;28.66;54.34
21236;BME280;10775;42.678;26.324;2023-07-20T04:02:46;98062.38;;;28.90;53.71
21236;BME280;10775;42.678;26.324;2023-07-20T04:05:12;98061.69;;;28.88;53.65
21236;BME280;10775;42.678;26.324;2023-07-20T04:07:37;98060.47;;;28.74;53.94
21236;BME280;10775;42.678;26.324;2023-07-20T04:10:03;98057.94;;;28.72;53.99
21236;BME280;10775;42.678;26.324;2023-07-20T04:12:29;98054.91;;;28.75;53.96
21236;BME280;10775;42.678;26.324;2023-07-20T04:14:54;98070.59;;;28.88;53.66
21236;BME280;10775;42.678;26.324;2023-07-20T04:17:19;98070.56;;;28.80;53.78
21236;BME280;10775;42.678;26.324;2023-07-20T04:19:45;98072.56;;;28.78;53.76
21236;BME280;10775;42.678;26.324;2023-07-20T04:22:10;98073.78;;;28.83;53.74
21236;BME280;10775;42.678;26.324;2023-07-20T04:24:36;98075.94;;;28.80;53.97
21236;BME280;10775;42.678;26.324;2023-07-20T04:27:01;98076.19;;;28.95;53.54
21236;BME280;10775;42.678;26.324;2023-07-20T04:29:27;98073.28;;;28.88;53.35
21236;BME280;10775;42.678;26.324;2023-07-20T04:31:52;98077.19;;;28.94;53.22
21236;BME280;10775;42.678;26.324;2023-07-20T04:34:18;98072.97;;;28.91;53.25
21236;BME280;10775;42.678;26.324;2023-07-20T04:36:43;98059.91;;;28.62;52.03
21236;BME280;10775;42.678;26.324;2023-07-20T04:39:10;98070.47;;;28.90;53.57
21236;BME280;10775;42.678;26.324;2023-07-20T04:41:35;98087.31;;;29.00;53.31
21236;BME280;10775;42.678;26.324;2023-07-20T04:44:01;98085.97;;;29.04;52.87
21236;BME280;10775;42.678;26.324;2023-07-20T04:46:26;98086.75;;;28.88;53.48
21236;BME280;10775;42.678;26.324;2023-07-20T04:48:51;98082.72;;;28.84;53.52
21236;BME280;10775;42.678;26.324;2023-07-20T04:51:17;98072.97;;;28.91;53.30
21236;BME280;10775;42.678;26.324;2023-07-20T04:53:46;98072.34;;;28.97;53.17
21236;BME280;10775;42.678;26.324;2023-07-20T04:56:12;98069.78;;;28.96;52.70
21236;BME280;10775;42.678;26.324;2023-07-20T04:58:38;98075.66;;;28.91;53.12
21236;BME280;10775;42.678;26.324;2023-07-20T05:01:03;98065.75;;;28.92;53.40
21236;BME280;10775;42.678;26.324;2023-07-20T05:03:28;98075.28;;;28.86;53.13
21236;BME280;10775;42.678;26.324;2023-07-20T05:05:54;98069.78;;;28.96;51.19
21236;BME280;10775;42.678;26.324;2023-07-20T05:08:20;98074.00;;;28.98;53.04
21236;BME280;10775;42.678;26.324;2023-07-20T05:10:47;98070.00;;;29.02;52.77
21236;BME280;10775;42.678;26.324;2023-07-20T05:13:13;98073.09;;;29.16;52.78
21236;BME280;10775;42.678;26.324;2023-07-20T05:15:38;98067.38;;;29.11;50.51
21236;BME280;10775;42.678;26.324;2023-07-20T05:18:04;98076.34;;;28.93;53.12
21236;BME280;10775;42.678;26.324;2023-07-20T05:20:30;98072.41;;;29.06;52.73
21236;BME280;10775;42.678;26.324;2023-07-20T05:22:57;98067.97;;;28.62;51.85
21236;BME280;10775;42.678;26.324;2023-07-20T05:25:22;98072.84;;;28.40;51.45
21236;BME280;10775;42.678;26.324;2023-07-20T05:27:48;98072.47;;;28.88;53.31
21236;BME280;10775;42.678;26.324;2023-07-20T05:30:14;98071.31;;;28.98;52.02
21236;BME280;10775;42.678;26.324;2023-07-20T05:32:39;98070.34;;;28.99;50.17
21236;BME280;10775;42.678;26.324;2023-07-20T05:35:05;98071.66;;;28.95;52.74
21236;BME280;10775;42.678;26.324;2023-07-20T05:37:31;98063.84;;;29.10;52.55
21236;BME280;10775;42.678;26.324;2023-07-20T05:39:57;98065.09;;;28.98;50.92
21236;BME280;10775;42.678;26.324;2023-07-20T05:42:22;98064.88;;;29.17;52.40
21236;BME280;10775;42.678;26.324;2023-07-20T05:44:48;98056.28;;;29.22;51.62
21236;BME280;10775;42.678;26.324;2023-07-20T05:47:15;98050.91;;;28.79;53.22
21236;BME280;10775;42.678;26.324;2023-07-20T05:49:40;98049.91;;;28.80;50.09
21236;BME280;10775;42.678;26.324;2023-07-20T05:52:06;98047.16;;;28.64;47.60
21236;BME280;10775;42.678;26.324;2023-07-20T05:54:31;98054.25;;;28.47;45.99
21236;BME280;10775;42.678;26.324;2023-07-20T05:56:57;98056.56;;;28.42;45.15
21236;BME280;10775;42.678;26.324;2023-07-20T05:59:22;98054.19;;;28.39;43.47
21236;BME280;10775;42.678;26.324;2023-07-20T06:01:49;98048.41;;;28.26;42.31
21236;BME280;10775;42.678;26.324;2023-07-20T06:04:15;98048.88;;;28.21;39.76
21236;BME280;10775;42.678;26.324;2023-07-20T06:06:40;98055.66;;;28.07;40.26
21236;BME280;10775;42.678;26.324;2023-07-20T06:09:06;98049.66;;;28.13;43.21
21236;BME280;10775;42.678;26.324;2023-07-20T06:11:35;98050.06;;;28.27;46.82
21236;BME280;10775;42.678;26.324;2023-07-20T06:14:01;98038.38;;;28.36;44.41
21236;BME280;10775;42.678;26.324;2023-07-20T06:16:26;98043.50;;;28.47;44.95
21236;BME280;10775;42.678;26.324;2023-07-20T06:18:52;98034.47;;;28.48;44.35
21236;BME280;10775;42.678;26.324;2023-07-20T06:21:17;98035.81;;;28.52;43.29
21236;BME280;10775;42.678;26.324;2023-07-20T06:23:43;98029.25;;;28.47;45.81
21236;BME280;10775;42.678;26.324;2023-07-20T06:26:08;98031.50;;;28.59;46.03
21236;BME280;10775;42.678;26.324;2023-07-20T06:28:34;98015.69;;;28.56;44.69
21236;BME280;10775;42.678;26.324;2023-07-20T06:31:00;98022.47;;;28.69;49.25
21236;BME280;10775;42.678;26.324;2023-07-20T06:33:26;98020.53;;;28.95;49.06
21236;BME280;10775;42.678;26.324;2023-07-20T06:35:52;98023.22;;;29.46;45.55
21236;BME280;10775;42.678;26.324;2023-07-20T06:38:18;98008.63;;;29.81;42.28
21236;BME280;10775;42.678;26.324;2023-07-20T06:40:47;98010.13;;;30.00;41.28
21236;BME280;10775;42.678;26.324;2023-07-20T06:43:12;98002.22;;;30.07;43.37
21236;BME280;10775;42.678;26.324;2023-07-20T06:45:38;98007.88;;;30.45;44.68
21236;BME280;10775;42.678;26.324;2023-07-20T06:48:03;98006.50;;;31.28;40.37
21236;BME280;10775;42.678;26.324;2023-07-20T06:50:29;98006.09;;;31.93;41.59
21236;BME280;10775;42.678;26.324;2023-07-20T06:52:54;98004.09;;;32.40;40.50
21236;BME280;10775;42.678;26.324;2023-07-20T06:55:20;98001.09;;;32.35;40.34
21236;BME280;10775;42.678;26.324;2023-07-20T06:57:46;98003.16;;;32.77;39.15
21236;BME280;10775;42.678;26.324;2023-07-20T07:00:12;98012.69;;;32.88;40.19
21236;BME280;10775;42.678;26.324;2023-07-20T07:02:37;98013.69;;;32.87;37.75
21236;BME280;10775;42.678;26.324;2023-07-20T07:05:03;98006.53;;;32.79;39.18
21236;BME280;10775;42.678;26.324;2023-07-20T07:07:29;98007.78;;;33.13;34.32
21236;BME280;10775;42.678;26.324;2023-07-20T07:09:55;98003.13;;;33.43;38.41
21236;BME280;10775;42.678;26.324;2023-07-20T07:12:20;97992.00;;;34.03;28.92
21236;BME280;10775;42.678;26.324;2023-07-20T07:14:46;98000.22;;;34.09;36.39
21236;BME280;10775;42.678;26.324;2023-07-20T07:17:11;98004.56;;;34.38;30.83
21236;BME280;10775;42.678;26.324;2023-07-20T07:19:36;97991.56;;;33.99;31.49
21236;BME280;10775;42.678;26.324;2023-07-20T07:22:04;97997.13;;;34.47;30.80
21236;BME280;10775;42.678;26.324;2023-07-20T07:24:29;97999.28;;;34.24;35.20
21236;BME280;10775;42.678;26.324;2023-07-20T07:26:59;97996.75;;;33.94;31.19
21236;BME280;10775;42.678;26.324;2023-07-20T07:29:25;97992.75;;;34.18;28.60
21236;BME280;10775;42.678;26.324;2023-07-20T07:31:51;97995.69;;;34.16;34.81
21236;BME280;10775;42.678;26.324;2023-07-20T07:34:16;97994.41;;;34.12;26.37
21236;BME280;10775;42.678;26.324;2023-07-20T07:36:43;97994.44;;;34.47;28.45
21236;BME280;10775;42.678;26.324;2023-07-20T07:39:08;97999.00;;;34.12;34.21
21236;BME280;10775;42.678;26.324;2023-07-20T07:41:34;97996.25;;;34.40;24.43
21236;BME280;10775;42.678;26.324;2023-07-20T07:44:00;98003.41;;;34.48;28.51
21236;BME280;10775;42.678;26.324;2023-07-20T07:46:25;97995.63;;;34.38;33.97
21236;BME280;10775;42.678;26.324;2023-07-20T07:48:51;97997.13;;;35.37;29.26
21236;BME280;10775;42.678;26.324;2023-07-20T07:51:16;97998.53;;;34.71;30.01
21236;BME280;10775;42.678;26.324;2023-07-20T07:53:42;97995.59;;;33.82;34.74
21236;BME280;10775;42.678;26.324;2023-07-20T07:56:09;97993.47;;;34.05;34.62
21236;BME280;10775;42.678;26.324;2023-07-20T07:58:34;97995.63;;;34.38;31.33
21236;BME280;10775;42.678;26.324;2023-07-20T08:01:00;97994.94;;;34.64;34.19
21236;BME280;10775;42.678;26.324;2023-07-20T08:03:26;97988.75;;;34.42;33.13
21236;BME280;10775;42.678;26.324;2023-07-20T08:05:54;97990.91;;;34.18;33.98
21236;BME280;10775;42.678;26.324;2023-07-20T08:08:20;97993.06;;;34.58;33.97
21236;BME280;10775;42.678;26.324;2023-07-20T08:10:46;97988.72;;;35.12;33.27
21236;BME280;10775;42.678;26.324;2023-07-20T08:13:12;97988.19;;;34.95;33.18
21236;BME280;10775;42.678;26.324;2023-07-20T08:15:38;97987.25;;;35.09;31.93
21236;BME280;10775;42.678;26.324;2023-07-20T08:18:03;97982.56;;;34.55;33.45
21236;BME280;10775;42.678;26.324;2023-07-20T08:20:29;97982.38;;;34.98;29.47
21236;BME280;10775;42.678;26.324;2023-07-20T08:22:55;97999.72;;;34.27;31.00
21236;BME280;10775;42.678;26.324;2023-07-20T08:25:21;97981.66;;;34.76;33.46
21236;BME280;10775;42.678;26.324;2023-07-20T08:27:46;97983.63;;;35.02;31.23
21236;BME280;10775;42.678;26.324;2023-07-20T08:30:13;97987.75;;;34.50;28.67
21236;BME280;10775;42.678;26.324;2023-07-20T08:32:38;97992.50;;;35.24;32.54
21236;BME280;10775;42.678;26.324;2023-07-20T08:35:05;97982.97;;;35.61;32.10
21236;BME280;10775;42.678;26.324;2023-07-20T08:37:31;97977.97;;;35.58;30.87
21236;BME280;10775;42.678;26.324;2023-07-20T08:39:56;97985.06;;;34.91;30.89
21236;BME280;10775;42.678;26.324;2023-07-20T08:42:22;97976.03;;;34.77;32.08
21236;BME280;10775;42.678;26.324;2023-07-20T08:44:48;97978.53;;;35.34;32.41
21236;BME280;10775;42.678;26.324;2023-07-20T08:47:16;97979.13;;;35.22;31.72
21236;BME280;10775;42.678;26.324;2023-07-20T08:49:41;97965.78;;;35.41;31.26
21236;BME280;10775;42.678;26.324;2023-07-20T08:52:08;97976.25;;;35.44;31.65
21236;BME280;10775;42.678;26.324;2023-07-20T08:54:34;97967.94;;;36.05;31.77
21236;BME280;10775;42.678;26.324;2023-07-20T08:57:05;97977.78;;;36.13;33.39
21236;BME280;10775;42.678;26.324;2023-07-20T08:59:31;97972.75;;;36.23;35.67
21236;BME280;10775;42.678;26.324;2023-07-20T09:01:58;97984.56;;;35.16;34.92
21236;BME280;10775;42.678;26.324;2023-07-20T09:04:24;97982.31;;;34.84;41.98
21236;BME280;10775;42.678;26.324;2023-07-20T09:06:50;97975.00;;;35.53;33.56
21236;BME280;10775;42.678;26.324;2023-07-20T09:09:16;97981.25;;;35.40;37.07
21236;BME280;10775;42.678;26.324;2023-07-20T09:11:42;97984.13;;;34.71;45.56
21236;BME280;10775;42.678;26.324;2023-07-20T09:14:09;97973.78;;;34.94;34.37
21236;BME280;10775;42.678;26.324;2023-07-20T09:16:54;97966.06;;;35.79;39.59
21236;BME280;10775;42.678;26.324;2023-07-20T09:19:21;97955.38;;;35.91;33.81
21236;BME280;10775;42.678;26.324;2023-07-20T09:21:50;97959.56;;;35.87;42.21
21236;BME280;10775;42.678;26.324;2023-07-20T09:24:18;97957.47;;;36.22;40.90
21236;BME280;10775;42.678;26.324;2023-07-20T09:26:45;97958.72;;;36.00;39.31
21236;BME280;10775;42.678;26.324;2023-07-20T09:29:13;97955.72;;;36.48;38.00
21236;BME280;10775;42.678;26.324;2023-07-20T09:31:39;97956.53;;;36.55;41.30
21236;BME280;10775;42.678;26.324;2023-07-20T09:34:06;97948.03;;;36.25;41.29
21236;BME280;10775;42.678;26.324;2023-07-20T09:36:36;97937.81;;;35.87;40.66
21236;BME280;10775;42.678;26.324;2023-07-20T09:39:02;97936.94;;;35.40;41.92
21236;BME280;10775;42.678;26.324;2023-07-20T09:41:29;97936.34;;;35.31;42.72
21236;BME280;10775;42.678;26.324;2023-07-20T09:43:54;97937.97;;;35.19;35.24
21236;BME280;10775;42.678;26.324;2023-07-20T09:46:20;97941.88;;;35.03;34.97
21236;BME280;10775;42.678;26.324;2023-07-20T09:48:54;97940.06;;;35.17;36.36
21236;BME280;10775;42.678;26.324;2023-07-20T09:51:23;97939.31;;;35.63;34.55
21236;BME280;10775;42.678;26.324;2023-07-20T09:53:52;97918.53;;;35.22;32.38
21236;BME280;10775;42.678;26.324;2023-07-20T09:56:18;97943.25;;;34.72;31.28
21236;BME280;10775;42.678;26.324;2023-07-20T09:58:46;97935.91;;;35.47;32.08
21236;BME280;10775;42.678;26.324;2023-07-20T10:01:12;97931.13;;;36.03;31.63
21236;BME280;10775;42.678;26.324;2023-07-20T10:03:41;97934.34;;;35.05;27.32
21236;BME280;10775;42.678;26.324;2023-07-20T10:06:13;97933.19;;;35.47;32.60
21236;BME280;10775;42.678;26.324;2023-07-20T10:08:41;97929.03;;;35.52;31.67
21236;BME280;10775;42.678;26.324;2023-07-20T10:11:07;97926.97;;;35.67;31.85
21236;BME280;10775;42.678;26.324;2023-07-20T10:13:38;97926.72;;;35.48;31.91
21236;BME280;10775;42.678;26.324;2023-07-20T10:16:10;97908.97;;;35.26;31.69
21236;BME280;10775;42.678;26.324;2023-07-20T10:21:23;97880.91;;;36.12;31.72
21236;BME280;10775;42.678;26.324;2023-07-20T10:23:48;97873.66;;;36.51;31.13
21236;BME280;10775;42.678;26.324;2023-07-20T10:26:14;97873.34;;;36.27;31.39
21236;BME280;10775;42.678;26.324;2023-07-20T10:28:40;97877.19;;;35.13;31.97
21236;BME280;10775;42.678;26.324;2023-07-20T10:31:08;97885.31;;;35.33;32.57
21236;BME280;10775;42.678;26.324;2023-07-20T10:33:35;97893.69;;;35.38;32.64
21236;BME280;10775;42.678;26.324;2023-07-20T10:36:03;97905.69;;;34.89;32.90
21236;BME280;10775;42.678;26.324;2023-07-20T10:38:42;97891.81;;;35.45;32.81
21236;BME280;10775;42.678;26.324;2023-07-20T10:44:00;97877.94;;;36.33;32.85
21236;BME280;10775;42.678;26.324;2023-07-20T10:46:58;97874.44;;;36.00;33.15
21236;BME280;10775;42.678;26.324;2023-07-20T10:49:24;97860.03;;;35.79;32.33
21236;BME280;10775;42.678;26.324;2023-07-20T10:51:57;97868.44;;;35.31;32.53
21236;BME280;10775;42.678;26.324;2023-07-20T10:56:51;97858.59;;;35.90;31.85
21236;BME280;10775;42.678;26.324;2023-07-20T11:01:56;97860.91;;;35.73;31.65
21236;BME280;10775;42.678;26.324;2023-07-20T11:04:51;97861.72;;;35.80;29.74
21236;BME280;10775;42.678;26.324;2023-07-20T11:07:20;97867.38;;;35.85;30.77
21236;BME280;10775;42.678;26.324;2023-07-20T11:10:13;97867.91;;;36.27;29.59
21236;BME280;10775;42.678;26.324;2023-07-20T11:12:40;97857.13;;;35.81;30.33
21236;BME280;10775;42.678;26.324;2023-07-20T11:15:06;97860.94;;;35.60;30.58
21236;BME280;10775;42.678;26.324;2023-07-20T11:17:33;97852.88;;;36.05;29.91
21236;BME280;10775;42.678;26.324;2023-07-20T11:20:00;97849.78;;;35.88;30.19
21236;BME280;10775;42.678;26.324;2023-07-20T11:22:26;97849.41;;;35.71;27.87
21236;BME280;10775;42.678;26.324;2023-07-20T11:24:55;97848.34;;;35.45;30.92
21236;BME280;10775;42.678;26.324;2023-07-20T11:27:21;97841.59;;;35.95;29.18
21236;BME280;10775;42.678;26.324;2023-07-20T11:29:50;97838.94;;;35.88;29.90
21236;BME280;10775;42.678;26.324;2023-07-20T11:32:24;97844.31;;;36.14;29.89
21236;BME280;10775;42.678;26.324;2023-07-20T11:34:50;97840.75;;;36.14;30.07
21236;BME280;10775;42.678;26.324;2023-07-20T11:37:17;97836.63;;;35.85;23.25
21236;BME280;10775;42.678;26.324;2023-07-20T11:39:43;97834.56;;;35.27;30.45
21236;BME280;10775;42.678;26.324;2023-07-20T11:42:09;97824.69;;;35.79;24.37
21236;BME280;10775;42.678;26.324;2023-07-20T11:44:34;97835.41;;;35.47;30.39
21236;BME280;10775;42.678;26.324;2023-07-20T11:47:05;97831.13;;;36.11;30.26
21236;BME280;10775;42.678;26.324;2023-07-20T11:49:36;97833.72;;;35.53;30.36
21236;BME280;10775;42.678;26.324;2023-07-20T11:52:04;97827.22;;;35.87;30.44
21236;BME280;10775;42.678;26.324;2023-07-20T11:54:30;97827.22;;;35.81;30.59
21236;BME280;10775;42.678;26.324;2023-07-20T11:56:56;97826.41;;;35.80;29.86
21236;BME280;10775;42.678;26.324;2023-07-20T11:59:22;97811.41;;;36.23;25.01
21236;BME280;10775;42.678;26.324;2023-07-20T12:01:47;97817.13;;;35.95;30.30
21236;BME280;10775;42.678;26.324;2023-07-20T12:04:13;97814.47;;;35.81;30.92
21236;BME280;10775;42.678;26.324;2023-07-20T12:06:39;97819.94;;;35.28;30.71
21236;BME280;10775;42.678;26.324;2023-07-20T12:09:04;97823.66;;;34.94;32.11
21236;BME280;10775;42.678;26.324;2023-07-20T12:11:37;97828.19;;;34.67;26.24
21236;BME280;10775;42.678;26.324;2023-07-20T12:14:07;97831.44;;;34.42;30.89
21236;BME280;10775;42.678;26.324;2023-07-20T12:16:34;97809.47;;;34.85;30.54
21236;BME280;10775;42.678;26.324;2023-07-20T12:19:00;97823.47;;;35.48;31.88
21236;BME280;10775;42.678;26.324;2023-07-20T12:21:26;97812.00;;;35.60;30.96
21236;BME280;10775;42.678;26.324;2023-07-20T12:23:52;97814.28;;;35.49;30.78
21236;BME280;10775;42.678;26.324;2023-07-20T12:26:17;97808.06;;;35.16;32.08
21236;BME280;10775;42.678;26.324;2023-07-20T12:28:45;97819.31;;;34.31;31.87
21236;BME280;10775;42.678;26.324;2023-07-20T12:31:10;97808.81;;;34.83;32.60
21236;BME280;10775;42.678;26.324;2023-07-20T12:33:36;97811.34;;;35.71;31.36
21236;BME280;10775;42.678;26.324;2023-07-20T12:36:03;97804.66;;;35.54;31.66
21236;BME280;10775;42.678;26.324;2023-07-20T12:38:29;97807.19;;;35.42;27.81
21236;BME280;10775;42.678;26.324;2023-07-20T12:40:56;97806.16;;;35.36;32.67
21236;BME280;10775;42.678;26.324;2023-07-20T12:43:22;97795.69;;;34.80;32.87
21236;BME280;10775;42.678;26.324;2023-07-20T12:45:48;97806.44;;;34.53;33.89
21236;BME280;10775;42.678;26.324;2023-07-20T12:48:13;97801.28;;;34.65;33.68
21236;BME280;10775;42.678;26.324;2023-07-20T12:50:39;97790.88;;;35.02;33.14
21236;BME280;10775;42.678;26.324;2023-07-20T12:53:04;97806.75;;;34.24;34.30
21236;BME280;10775;42.678;26.324;2023-07-20T12:55:30;97798.16;;;34.81;33.72
21236;BME280;10775;42.678;26.324;2023-07-20T12:57:55;97786.72;;;35.13;34.39
21236;BME280;10775;42.678;26.324;2023-07-20T13:00:21;97778.97;;;34.96;34.11
21236;BME280;10775;42.678;26.324;2023-07-20T13:02:50;97788.47;;;34.46;34.06
21236;BME280;10775;42.678;26.324;2023-07-20T13:05:15;97795.56;;;34.47;35.06
21236;BME280;10775;42.678;26.324;2023-07-20T13:07:42;97793.34;;;34.15;35.63
21236;BME280;10775;42.678;26.324;2023-07-20T13:10:08;97798.84;;;34.29;31.61